Terminal Aerodrome Forecast
Issued by NWS Sterling, VA

Current Version | Previous Version | Text Only | Print | Product List | Glossary Off
Versions: 1 2 3 4 5 6 7 8 9 10 11 12 13 14 15 16 17 18 19 20 21 22 23 24

365
FTUS41 KLWX 182341
TAFDCA
TAF
KDCA 182341Z 1900/1924 19010KT P6SM OVC140
     FM190300 20013G23KT P6SM BKN035 OVC080
     FM190500 20016G26KT 6SM -SHRA BKN025 OVC045
     FM190900 23025G39KT P6SM SCT015 OVC040
     FM191400 30024G41KT P6SM SCT050
     FM191800 30020G34KT P6SM SCT050=

USA.gov is the U.S. government's official web portal to all federal, state and local government web resources and services.